Time;durP1;ratioP1;P1;durP2;ratioP2;P2;SDS_P1;SDS_P2;PMS_P1;PMS_P2;Temp;Humidity;BMP_temperature;BMP_pressure;BME280_temperature;BME280_humidity;BME280_pressure;Samples;Min_cycle;Max_cycle;Signal;HPM_P1;HPM_P2
2022/07/10 00:00:31;;;;;;;8.87;2.00;;;;;;;12.31;78.91;102641.53;4990714;28;20061;-87
2022/07/10 00:02:57;;;;;;;8.88;1.90;;;;;;;12.24;79.22;102643.47;4991108;28;20132;-87
2022/07/10 00:05:23;;;;;;;4.75;1.63;;;;;;;12.19;79.81;102637.94;4989549;28;20109;-87
2022/07/10 00:07:49;;;;;;;5.68;1.83;;;;;;;12.18;79.38;102647.88;4990658;28;20381;-87
2022/07/10 00:10:16;;;;;;;8.30;2.08;;;;;;;12.08;80.22;102644.88;4990916;28;20485;-87
2022/07/10 00:12:42;;;;;;;4.17;1.57;;;;;;;12.03;80.49;102648.22;4990933;28;20034;-86
2022/07/10 00:15:08;;;;;;;3.73;1.80;;;;;;;11.97;80.60;102644.53;4990717;28;20272;-87
2022/07/10 00:17:36;;;;;;;4.28;2.05;;;;;;;11.95;80.44;102641.25;4990501;28;20030;-87
2022/07/10 00:20:02;;;;;;;5.77;1.90;;;;;;;11.94;80.29;102639.63;4990628;28;20109;-87
2022/07/10 00:22:27;;;;;;;8.38;2.22;;;;;;;11.91;81.05;102644.63;4990266;28;20030;-87
2022/07/10 00:24:53;;;;;;;5.20;1.87;;;;;;;11.91;81.00;102640.06;4989666;28;20394;-87
2022/07/10 00:27:18;;;;;;;6.53;1.88;;;;;;;11.81;81.04;102637.88;4990820;28;20026;-87
2022/07/10 00:29:44;;;;;;;6.33;2.13;;;;;;;11.82;81.14;102631.47;4990601;28;20026;-87
2022/07/10 00:32:10;;;;;;;7.13;1.83;;;;;;;11.80;81.42;102625.50;4990601;28;20033;-87
2022/07/10 00:34:35;;;;;;;3.33;1.77;;;;;;;11.81;80.92;102639.75;4990188;28;20069;-87
2022/07/10 00:37:02;;;;;;;6.72;2.22;;;;;;;11.77;81.19;102635.88;4989134;28;20389;-87
2022/07/10 00:39:27;;;;;;;5.47;2.10;;;;;;;11.66;81.70;102627.50;4990148;28;20058;-87
2022/07/10 00:41:53;;;;;;;4.27;1.90;;;;;;;11.62;82.17;102631.66;4990604;28;20277;-87
2022/07/10 00:44:18;;;;;;;3.87;1.80;;;;;;;11.58;82.44;102635.81;4988774;28;20038;-87
2022/07/10 00:46:43;;;;;;;4.50;1.97;;;;;;;11.62;82.47;102633.50;4990503;28;20113;-87
2022/07/10 00:49:08;;;;;;;6.47;2.17;;;;;;;11.58;82.72;102627.78;4990608;28;20027;-87
2022/07/10 00:51:34;;;;;;;8.07;2.05;;;;;;;11.61;82.97;102630.03;4989563;28;20477;-87
2022/07/10 00:54:00;;;;;;;5.10;1.97;;;;;;;11.61;81.89;102621.97;4989627;28;20031;-87
2022/07/10 00:56:27;;;;;;;5.60;2.00;;;;;;;11.60;82.34;102622.16;4993788;28;20036;-87
2022/07/10 00:58:53;;;;;;;6.20;2.00;;;;;;;11.55;83.12;102616.66;4993974;28;20292;-87
2022/07/10 01:01:19;;;;;;;4.63;1.95;;;;;;;11.54;82.98;102613.13;4994223;28;20048;-87
2022/07/10 01:03:46;;;;;;;7.45;2.20;;;;;;;11.54;82.83;102613.13;4993590;28;20026;-87
2022/07/10 01:06:14;;;;;;;4.32;1.90;;;;;;;11.48;82.64;102606.78;4993959;28;20469;-87
2022/07/10 01:08:40;;;;;;;7.03;2.20;;;;;;;11.50;83.46;102601.22;4994089;28;20069;-87
2022/07/10 01:11:07;;;;;;;4.88;1.98;;;;;;;11.51;83.95;102602.84;4993045;28;20040;-87
2022/07/10 01:13:32;;;;;;;7.28;1.90;;;;;;;11.56;83.31;102599.50;4993660;28;20476;-87
2022/07/10 01:15:59;;;;;;;6.67;1.90;;;;;;;11.61;83.03;102596.97;4994401;28;20026;-87
2022/07/10 01:18:27;;;;;;;6.93;2.00;;;;;;;11.59;83.37;102593.69;4992800;28;20026;-87
2022/07/10 01:20:54;;;;;;;10.65;2.10;;;;;;;11.63;83.17;102595.72;4993843;28;20038;-87
2022/07/10 01:23:20;;;;;;;5.18;2.50;;;;;;;11.63;83.35;102590.34;4993556;28;20485;-87
2022/07/10 01:25:45;;;;;;;6.57;1.90;;;;;;;11.66;83.12;102589.91;4994927;28;20057;-88
2022/07/10 01:28:10;;;;;;;9.20;1.85;;;;;;;11.64;82.60;102585.78;4993861;28;20026;-87
2022/07/10 01:30:35;;;;;;;6.20;1.80;;;;;;;11.53;83.57;102590.00;4993276;28;20089;-87
2022/07/10 01:33:01;;;;;;;9.33;2.07;;;;;;;11.44;83.78;102581.44;4993603;28;20038;-87
2022/07/10 01:35:26;;;;;;;5.00;2.00;;;;;;;11.40;84.05;102584.78;4993074;28;20532;-87
2022/07/10 01:37:51;;;;;;;6.43;1.80;;;;;;;11.33;84.02;102580.28;4993364;28;20076;-87
2022/07/10 01:40:17;;;;;;;7.87;1.87;;;;;;;11.32;84.12;102583.19;4992367;28;20026;-87
2022/07/10 01:42:43;;;;;;;3.78;1.70;;;;;;;11.23;84.21;102582.66;4992429;28;20084;-87
2022/07/10 01:45:09;;;;;;;5.83;1.80;;;;;;;11.26;84.78;102590.25;4992088;28;20049;-87
2022/07/10 01:47:34;;;;;;;7.95;1.90;;;;;;;11.21;84.52;102588.25;4993486;28;20026;-87
2022/07/10 01:50:00;;;;;;;5.30;1.77;;;;;;;11.19;85.23;102589.50;4992711;28;20053;-86
2022/07/10 01:52:25;;;;;;;4.97;1.70;;;;;;;11.17;85.15;102586.19;4993172;28;20045;-87
2022/07/10 01:54:50;;;;;;;7.63;1.50;;;;;;;11.13;85.27;102580.44;4992751;28;20561;-87
2022/07/10 01:57:16;;;;;;;5.30;1.90;;;;;;;11.08;86.05;102576.78;4993059;28;20027;-87
2022/07/10 01:59:41;;;;;;;7.30;1.90;;;;;;;11.06;85.90;102585.88;4992021;28;20034;-86
2022/07/10 02:02:07;;;;;;;5.03;1.87;;;;;;;11.00;86.50;102585.94;4992193;28;20038;-87
2022/07/10 02:04:41;;;;;;;5.13;1.90;;;;;;;10.97;86.30;102571.06;4992061;28;20113;-87
2022/07/10 02:07:08;;;;;;;4.47;1.80;;;;;;;10.95;86.41;102572.34;4992633;28;20069;-87
2022/07/10 02:09:33;;;;;;;7.35;2.00;;;;;;;10.86;86.80;102580.63;4992759;28;20030;-87
2022/07/10 02:11:59;;;;;;;6.47;2.08;;;;;;;10.86;86.86;102575.28;4990542;28;20026;-86
2022/07/10 02:14:24;;;;;;;6.57;1.90;;;;;;;10.85;87.09;102581.69;4992042;28;20068;-87
2022/07/10 02:16:49;;;;;;;7.20;1.63;;;;;;;10.85;87.05;102581.69;4992884;28;20099;-87
2022/07/10 02:19:14;;;;;;;11.50;1.90;;;;;;;10.82;87.41;102583.97;4992714;28;20068;-87
2022/07/10 02:21:40;;;;;;;8.47;2.20;;;;;;;10.84;87.39;102576.53;4992806;28;20034;-87
2022/07/10 02:24:05;;;;;;;4.00;1.60;;;;;;;10.80;87.31;102578.00;4992126;28;20026;-87
2022/07/10 02:26:30;;;;;;;7.88;2.45;;;;;;;10.78;87.52;102577.38;4992721;28;20026;-87
2022/07/10 02:28:56;;;;;;;5.50;2.03;;;;;;;10.71;87.52;102586.31;4992314;28;20077;-87
2022/07/10 02:31:21;;;;;;;6.13;1.77;;;;;;;10.68;87.52;102578.69;4992665;28;20035;-87
2022/07/10 02:33:46;;;;;;;4.40;1.80;;;;;;;10.62;87.84;102582.22;4991792;28;20029;-87
2022/07/10 02:36:12;;;;;;;6.43;2.20;;;;;;;10.62;88.28;102582.22;4992416;28;20510;-87
2022/07/10 02:38:37;;;;;;;6.60;2.20;;;;;;;10.62;88.90;102579.56;4974987;28;20034;-87
2022/07/10 02:41:02;;;;;;;8.18;2.17;;;;;;;10.60;88.91;102577.09;4992405;28;20536;-87
2022/07/10 02:43:27;;;;;;;3.40;1.80;;;;;;;10.60;89.65;102571.72;4990501;28;20033;-87
2022/07/10 02:45:53;;;;;;;3.40;2.07;;;;;;;10.58;88.83;102570.31;4992124;28;20116;-87
2022/07/10 02:48:18;;;;;;;4.87;1.90;;;;;;;10.67;89.20;102577.06;4992451;28;20496;-87
2022/07/10 02:50:44;;;;;;;6.00;1.87;;;;;;;10.74;89.15;102571.66;4991461;28;20057;-87
2022/07/10 02:53:09;;;;;;;8.13;2.05;;;;;;;10.83;90.25;102569.53;4992275;28;20081;-87
2022/07/10 02:55:34;;;;;;;7.83;2.00;;;;;;;10.96;89.64;102564.06;4992287;28;20031;-89
2022/07/10 02:58:01;;;;;;;5.83;2.00;;;;;;;11.13;89.55;102575.09;4990741;28;20388;-89
2022/07/10 03:00:27;;;;;;;6.15;2.03;;;;;;;11.24;89.09;102573.56;4991795;28;20443;-87
2022/07/10 03:02:54;;;;;;;5.63;2.05;;;;;;;11.33;88.57;102569.53;4990614;28;20026;-87
2022/07/10 03:05:19;;;;;;;5.77;2.40;;;;;;;11.43;88.85;102569.03;4989626;28;20034;-87
2022/07/10 03:07:45;;;;;;;7.00;2.10;;;;;;;11.52;88.01;102566.91;4991322;28;20477;-87
2022/07/10 03:10:10;;;;;;;4.03;2.00;;;;;;;11.60;87.91;102574.69;4991144;28;20033;-87
2022/07/10 03:12:36;;;;;;;9.13;1.90;;;;;;;11.62;86.82;102572.59;4991903;28;20529;-87
2022/07/10 03:15:02;;;;;;;7.75;1.95;;;;;;;11.56;86.68;102572.66;4988630;28;20053;-87
2022/07/10 03:17:27;;;;;;;11.23;2.10;;;;;;;11.52;87.82;102565.06;4990871;28;20477;-87
2022/07/10 03:19:53;;;;;;;5.40;1.63;;;;;;;11.54;86.84;102569.38;4991138;28;20042;-87
2022/07/10 03:22:18;;;;;;;9.67;2.23;;;;;;;11.52;87.00;102562.38;4991868;28;20022;-88
2022/07/10 03:24:46;;;;;;;6.55;1.90;;;;;;;11.44;87.12;102564.50;4988851;28;20026;-87
2022/07/10 03:27:12;;;;;;;7.78;2.22;;;;;;;11.34;87.89;102559.66;4991762;28;20026;-87
2022/07/10 03:29:37;;;;;;;7.13;1.90;;;;;;;11.24;87.85;102570.03;4990427;28;20081;-87
2022/07/10 03:32:04;;;;;;;6.60;2.87;;;;;;;11.13;89.07;102564.34;4990296;28;20405;-87
2022/07/10 03:34:30;;;;;;;8.88;2.30;;;;;;;11.14;88.69;102559.78;4974278;28;20516;-87
2022/07/10 03:36:55;;;;;;;7.97;2.10;;;;;;;11.14;89.59;102557.13;4990922;28;20026;-88
2022/07/10 03:39:20;;;;;;;7.83;1.97;;;;;;;11.17;88.79;102552.16;4993821;28;20096;-87
2022/07/10 03:41:46;;;;;;;7.47;2.63;;;;;;;11.18;89.03;102544.91;4996117;28;20113;-87
2022/07/10 03:44:11;;;;;;;7.22;2.10;;;;;;;11.29;89.43;102554.09;4995364;28;20409;-88
2022/07/10 03:46:36;;;;;;;6.27;1.90;;;;;;;11.33;89.14;102544.59;4995895;28;20038;-88
2022/07/10 03:49:01;;;;;;;7.60;2.00;;;;;;;11.48;88.27;102554.97;4993881;28;20030;-87
2022/07/10 03:51:27;;;;;;;9.60;2.30;;;;;;;11.55;88.05;102549.53;4993375;28;20023;-87
2022/07/10 03:53:52;;;;;;;4.67;2.10;;;;;;;11.59;87.45;102551.56;4991328;28;20080;-87
2022/07/10 03:59:01;;;;;;;6.15;1.85;;;;;;;11.60;87.89;102555.88;4983092;28;20045;-87
2022/07/10 04:01:26;;;;;;;4.53;2.00;;;;;;;11.66;87.88;102549.63;4991152;28;20066;-87
2022/07/10 04:03:52;;;;;;;8.60;2.10;;;;;;;11.66;88.55;102552.31;4989148;28;20045;-87
2022/07/10 04:06:17;;;;;;;6.67;2.53;;;;;;;11.72;88.16;102547.91;4990450;28;20095;-88
2022/07/10 04:08:42;;;;;;;5.72;1.90;;;;;;;11.73;87.73;102546.88;4973424;28;20040;-89
2022/07/10 04:11:08;;;;;;;8.37;2.00;;;;;;;11.87;87.95;102560.94;4985530;28;20041;-88
2022/07/10 04:13:33;;;;;;;8.43;2.30;;;;;;;11.92;87.79;102550.38;4990145;28;20547;-89
2022/07/10 04:15:58;;;;;;;7.43;2.23;;;;;;;12.01;87.95;102553.59;4990187;28;20100;-89
2022/07/10 04:18:23;;;;;;;6.07;2.27;;;;;;;12.13;86.75;102558.22;4990385;28;20097;-92
2022/07/10 04:20:49;;;;;;;5.13;2.17;;;;;;;12.21;86.45;102569.50;4990109;28;20026;-89
2022/07/10 04:23:14;;;;;;;9.13;2.23;;;;;;;12.25;86.88;102562.59;4990976;28;20050;-92
2022/07/10 04:25:39;;;;;;;8.52;2.20;;;;;;;12.32;85.69;102545.56;4990290;28;20078;-88
2022/07/10 04:28:05;;;;;;;6.83;2.20;;;;;;;12.41;86.20;102530.78;4990270;28;20035;-88
2022/07/10 04:30:30;;;;;;;8.07;2.20;;;;;;;12.51;85.47;102527.50;4992576;28;20033;-87
2022/07/10 04:32:56;;;;;;;8.60;2.10;;;;;;;12.61;84.73;102541.25;4994941;28;20022;-87
2022/07/10 04:35:21;;;;;;;7.93;2.45;;;;;;;12.60;85.52;102544.16;4994863;28;20027;-90
2022/07/10 04:38:17;;;;;;;9.17;2.40;;;;;;;12.65;86.04;102566.63;4994954;28;20027;-89
2022/07/10 04:40:42;;;;;;;5.53;2.33;;;;;;;12.70;85.17;102550.59;4996492;28;20038;-89
2022/07/10 04:43:09;;;;;;;9.70;2.23;;;;;;;12.77;85.10;102545.16;4998874;28;20036;-88
2022/07/10 04:45:37;;;;;;;5.63;2.10;;;;;;;12.76;84.66;102548.06;4992349;28;20074;-88
2022/07/10 04:48:05;;;;;;;5.30;2.25;;;;;;;12.82;84.67;102537.19;4994496;28;20097;-87
2022/07/10 04:50:31;;;;;;;7.55;2.08;;;;;;;12.78;84.52;102530.63;4994613;28;20068;-87
2022/07/10 04:52:57;;;;;;;4.10;1.90;;;;;;;12.90;85.23;102552.16;4993062;28;20034;-87
2022/07/10 04:55:22;;;;;;;3.65;1.70;;;;;;;12.90;84.67;102532.53;4994210;28;20022;-87
2022/07/10 04:57:58;;;;;;;7.37;2.33;;;;;;;12.98;84.19;102537.56;4993291;28;20027;-87
2022/07/10 05:00:24;;;;;;;6.75;2.20;;;;;;;13.09;84.36;102555.59;4994783;28;20042;-87
2022/07/10 05:02:49;;;;;;;7.93;2.33;;;;;;;13.15;83.97;102548.47;4993992;28;20027;-88
2022/07/10 05:05:15;;;;;;;9.93;2.30;;;;;;;13.30;83.33;102556.91;4992340;28;20038;-88
2022/07/10 05:07:40;;;;;;;4.85;2.20;;;;;;;13.43;83.35;102547.81;4992460;28;20030;-88
2022/07/10 05:10:06;;;;;;;7.87;2.77;;;;;;;13.52;82.66;102536.66;4991940;28;20493;-88
2022/07/10 05:12:34;;;;;;;5.73;2.30;;;;;;;13.56;82.66;102562.06;4994364;28;20030;-88
2022/07/10 05:15:00;;;;;;;8.15;2.15;;;;;;;13.60;83.02;102555.16;4994013;28;20022;-87
2022/07/10 05:17:28;;;;;;;10.37;2.70;;;;;;;13.66;83.19;102565.00;4994493;28;20034;-87
2022/07/10 05:19:55;;;;;;;7.10;2.47;;;;;;;13.77;82.79;102564.16;4994484;28;20113;-88
2022/07/10 05:22:21;;;;;;;5.22;2.60;;;;;;;13.83;82.90;102575.84;4991733;28;20041;-87
2022/07/10 05:24:47;;;;;;;8.10;2.60;;;;;;;13.93;82.02;102569.88;4989677;28;20030;-88
2022/07/10 05:27:12;;;;;;;5.30;2.30;;;;;;;13.88;81.38;102557.09;4989750;28;20153;-89
2022/07/10 05:29:37;;;;;;;11.43;2.83;;;;;;;13.91;81.19;102567.41;4993787;28;20485;-88
2022/07/10 05:32:03;;;;;;;8.43;2.50;;;;;;;13.82;81.24;102565.31;4994704;28;20037;-88
2022/07/10 05:34:28;;;;;;;10.23;2.47;;;;;;;13.92;82.02;102562.84;4993695;28;20035;-88
2022/07/10 05:36:53;;;;;;;8.43;2.17;;;;;;;15.38;78.24;102561.63;4991511;28;20030;-88
2022/07/10 05:39:19;;;;;;;5.83;2.20;;;;;;;17.24;71.08;102569.03;4993665;28;20100;-88
2022/07/10 05:42:00;;;;;;;4.35;2.20;;;;;;;18.77;64.58;102567.16;4993864;28;20040;-89
2022/07/10 05:44:28;;;;;;;12.83;2.93;;;;;;;19.75;60.92;102570.81;4990561;28;20041;-87
2022/07/10 05:46:56;;;;;;;6.30;2.17;;;;;;;20.33;58.41;102566.75;4990599;28;20377;-87
2022/07/10 05:49:27;;;;;;;8.40;2.10;;;;;;;20.93;58.01;102573.94;4990462;28;20089;-87
2022/07/10 05:51:56;;;;;;;7.03;1.83;;;;;;;20.91;55.61;102571.50;4992936;28;20031;-87
2022/07/10 05:54:21;;;;;;;10.52;1.77;;;;;;;20.97;54.89;102567.66;4992657;28;20034;-86
2022/07/10 05:56:46;;;;;;;6.07;1.60;;;;;;;20.83;55.06;102574.84;4992188;28;20640;-87
2022/07/10 05:59:13;;;;;;;6.17;1.60;;;;;;;20.46;55.59;102570.72;4993294;28;20085;-87
2022/07/10 06:01:38;;;;;;;5.03;1.50;;;;;;;20.22;55.89;102579.59;4993089;28;20490;-86
2022/07/10 06:04:04;;;;;;;4.47;1.65;;;;;;;20.07;57.09;102577.78;4993357;28;20058;-87
2022/07/10 06:06:29;;;;;;;6.83;1.40;;;;;;;19.60;57.59;102558.91;4989758;28;20429;-87
2022/07/10 06:08:55;;;;;;;4.43;1.40;;;;;;;19.33;58.91;102570.13;4979634;28;20478;-86
2022/07/10 06:11:20;;;;;;;9.63;1.60;;;;;;;19.04;59.71;102560.69;4986116;28;20497;-89
2022/07/10 06:13:51;;;;;;;4.67;1.40;;;;;;;18.79;60.52;102550.63;4991563;28;20300;-88
2022/07/10 06:16:16;;;;;;;6.20;1.25;;;;;;;18.76;60.76;102551.94;4993486;28;20050;-88
2022/07/10 06:18:42;;;;;;;9.30;1.40;;;;;;;18.43;60.98;102553.31;4992591;28;20173;-89
2022/07/10 06:21:08;;;;;;;10.00;1.47;;;;;;;18.29;61.88;102558.44;4993202;28;20139;-88
2022/07/10 06:23:33;;;;;;;4.60;1.30;;;;;;;18.13;63.10;102571.13;4990853;28;20106;-90
2022/07/10 06:26:00;;;;;;;6.27;1.20;;;;;;;18.08;63.55;102549.41;4993136;28;20033;-89
2022/07/10 06:28:28;;;;;;;7.32;1.40;;;;;;;18.03;63.65;102565.69;4993382;28;20058;-90
2022/07/10 06:31:18;;;;;;;4.47;1.20;;;;;;;18.01;64.35;102566.75;4993433;28;20031;-90
2022/07/10 06:34:27;;;;;;;7.47;1.40;;;;;;;17.89;64.08;102552.59;4992848;28;20046;-89
2022/07/10 06:37:02;;;;;;;11.52;1.52;;;;;;;17.99;64.60;102558.06;4993644;28;20026;-91
2022/07/10 06:39:37;;;;;;;5.32;1.40;;;;;;;18.21;64.30;102562.47;4991844;28;20030;-89
2022/07/10 06:42:18;;;;;;;6.77;1.10;;;;;;;18.08;63.89;102547.53;4991449;28;20042;-90
2022/07/10 06:44:47;;;;;;;12.80;1.50;;;;;;;17.81;63.72;102536.81;4993122;28;20282;-90
2022/07/10 06:50:30;;;;;;;7.30;1.23;;;;;;;17.93;63.88;102550.16;4993361;28;20116;-91
2022/07/10 06:53:08;;;;;;;8.52;1.60;;;;;;;17.69;64.42;102561.44;5042859;23;20117;-90
2022/07/10 06:55:46;;;;;;;6.85;1.33;;;;;;;17.40;64.85;102557.22;5012042;28;20037;-89
2022/07/10 06:58:12;;;;;;;4.97;1.48;;;;;;;17.17;65.87;102547.59;5012768;28;20101;-89
2022/07/10 07:01:24;;;;;;;6.63;1.40;;;;;;;17.32;66.32;102554.19;5012273;28;20110;-92
2022/07/10 07:04:21;;;;;;;9.68;1.60;;;;;;;17.83;65.54;102559.88;5012755;28;20025;-90
2022/07/10 07:07:31;;;;;;;6.82;1.30;;;;;;;17.86;64.19;102559.34;4994561;28;20026;-91
2022/07/10 07:33:31;;;;;;;6.03;1.48;;;;;;;17.96;64.47;102587.59;5491995;23;20054;-91
2022/07/10 07:37:05;;;;;;;7.68;1.42;;;;;;;18.08;65.26;102580.06;4993066;28;20042;-91
2022/07/10 07:40:27;;;;;;;6.07;1.30;;;;;;;18.26;63.91;102576.03;5331431;23;20077;-92
2022/07/10 08:01:52;;;;;;;9.13;1.90;;;;;;;18.45;63.49;102557.38;4942035;29;20062;-92
2022/07/10 08:04:42;;;;;;;6.03;2.03;;;;;;;18.62;63.24;102575.31;4950030;28;20035;-91
2022/07/10 08:07:43;;;;;;;;;;;;;;;;;;;;;
2022/07/10 08:10:11;;;;;;;7.75;2.17;;;;;;;18.29;63.80;102559.22;4990780;28;20052;-92
2022/07/10 08:12:38;;;;;;;8.75;2.03;;;;;;;18.14;63.76;102567.34;4992099;28;20046;-90
2022/07/10 08:15:06;;;;;;;8.35;2.22;;;;;;;18.03;64.93;102573.81;4974822;28;20062;-89
2022/07/10 08:17:31;;;;;;;10.52;2.20;;;;;;;18.03;65.00;102565.69;4971951;28;20027;-90
2022/07/10 08:19:57;;;;;;;6.63;2.20;;;;;;;18.10;65.04;102568.94;4971295;28;20563;-90
2022/07/10 08:22:22;;;;;;;8.93;2.23;;;;;;;18.08;65.12;102569.22;4955347;28;20059;-90
2022/07/10 08:24:47;;;;;;;7.10;2.13;;;;;;;17.98;65.85;102550.22;4977093;28;20047;-89
2022/07/10 08:27:18;;;;;;;5.07;2.03;;;;;;;18.08;65.76;102574.66;4991161;28;20022;-90
2022/07/10 08:29:53;;;;;;;10.95;2.60;;;;;;;18.22;65.08;102569.53;4991475;28;20026;-90
2022/07/10 08:32:26;;;;;;;10.18;2.28;;;;;;;18.40;64.63;102564.69;4991687;28;20030;-91
2022/07/10 08:35:00;;;;;;;12.43;2.47;;;;;;;18.55;64.77;102572.84;4991370;28;20042;-90
2022/07/10 08:37:26;;;;;;;7.88;2.15;;;;;;;18.61;64.29;102566.34;4989154;28;20022;-89
2022/07/10 08:39:54;;;;;;;7.63;2.13;;;;;;;18.57;63.68;102567.97;4975610;28;20030;-90
2022/07/10 08:42:39;;;;;;;7.78;2.17;;;;;;;18.83;63.92;102569.88;4971082;28;20027;-89
2022/07/10 08:45:05;;;;;;;8.93;2.30;;;;;;;18.96;63.35;102569.34;4969976;28;20041;-90
2022/07/10 08:47:33;;;;;;;9.07;2.22;;;;;;;19.05;62.65;102564.19;4969957;28;20046;-89
2022/07/10 08:50:49;;;;;;;7.80;2.47;;;;;;;19.21;62.55;102568.50;4972101;28;20041;-88
2022/07/10 08:53:39;;;;;;;7.65;2.20;;;;;;;19.14;62.17;102578.03;4953526;28;20039;-89
2022/07/10 08:56:10;;;;;;;9.15;2.40;;;;;;;19.10;62.50;102566.91;4975566;28;20484;-89
2022/07/10 08:58:36;;;;;;;8.40;2.33;;;;;;;19.00;61.58;102573.16;4976593;28;20037;-89
2022/07/10 09:01:08;;;;;;;6.83;2.27;;;;;;;18.86;62.68;102575.56;4973486;28;20023;-89
2022/07/10 09:06:05;;;;;;;6.85;2.33;;;;;;;18.56;63.42;102579.91;5025940;23;20061;-90
2022/07/10 09:08:58;;;;;;;7.90;2.30;;;;;;;18.60;64.14;102578.28;4992974;28;20481;-90
2022/07/10 09:11:33;;;;;;;10.13;2.20;;;;;;;18.68;64.51;102576.94;5005604;28;20058;-90
2022/07/10 09:14:23;;;;;;;7.07;2.15;;;;;;;18.92;63.29;102574.50;5008115;28;20045;-89
2022/07/10 09:16:59;;;;;;;6.88;2.03;;;;;;;19.05;63.06;102566.91;4980873;28;20041;-89
2022/07/10 09:19:31;;;;;;;7.30;2.15;;;;;;;19.26;61.92;102556.00;5010747;28;20038;-90
2022/07/10 09:22:16;;;;;;;6.35;2.00;;;;;;;19.30;61.83;102560.63;5013537;28;20480;-89
2022/07/10 09:24:46;;;;;;;6.07;1.75;;;;;;;19.53;61.17;102547.50;5011376;28;20052;-90
2022/07/10 09:27:17;;;;;;;8.00;1.90;;;;;;;19.85;60.67;102542.78;5007810;28;20481;-90
2022/07/10 09:29:56;;;;;;;6.17;1.70;;;;;;;20.40;59.41;102549.00;5012904;28;20276;-91
2022/07/10 09:33:09;;;;;;;4.57;1.58;;;;;;;20.85;57.96;102543.50;5013241;28;20061;-89
2022/07/10 09:46:08;;;;;;;5.90;1.70;;;;;;;19.55;61.01;102553.50;4914073;29;20088;-91
2022/07/10 10:01:09;;;;;;;6.20;1.60;;;;;;;21.81;57.07;102538.38;4967322;28;21971;-89
2022/07/10 10:04:12;;;;;;;5.65;1.67;;;;;;;22.51;53.04;102539.56;4957929;28;20040;-86
2022/07/10 10:06:53;;;;;;;4.72;1.60;;;;;;;22.03;53.68;102532.34;4932305;29;20028;-87
2022/07/10 10:13:10;;;;;;;7.57;1.90;;;;;;;21.42;55.36;102523.84;5011246;28;20045;-87
2022/07/10 10:15:49;;;;;;;4.03;1.80;;;;;;;21.14;55.07;102528.25;4994511;28;20021;-87
2022/07/10 10:18:21;;;;;;;5.97;2.10;;;;;;;21.08;55.18;102543.84;5007672;28;20113;-87
2022/07/10 10:21:06;;;;;;;4.47;1.90;;;;;;;21.26;55.28;102525.91;4996893;28;20061;-87
2022/07/10 10:23:34;;;;;;;5.45;2.28;;;;;;;21.74;53.80;102525.09;5011571;28;20030;-86
2022/07/10 10:26:05;;;;;;;5.57;1.87;;;;;;;22.22;53.10;102518.69;5011726;28;20026;-86
2022/07/10 10:29:06;;;;;;;3.47;1.90;;;;;;;22.99;52.83;102524.00;5126422;23;20327;-87
2022/07/10 10:32:25;;;;;;;4.13;2.10;;;;;;;23.52;50.65;102530.91;5011390;28;20030;-87
2022/07/10 10:38:55;;;;;;;2.63;1.70;;;;;;;23.33;49.44;102513.81;5149712;23;20076;-87
2022/07/10 10:41:27;;;;;;;6.13;2.53;;;;;;;23.45;50.18;102527.81;5016599;28;20037;-88
2022/07/10 10:44:07;;;;;;;4.78;2.10;;;;;;;23.04;50.11;102537.56;5030981;28;20441;-87
2022/07/10 10:46:59;;;;;;;4.70;2.15;;;;;;;22.46;51.54;102525.97;5031685;28;20435;-87
2022/07/10 10:49:59;;;;;;;5.32;2.25;;;;;;;22.74;52.37;102534.28;5013695;28;20034;-88
2022/07/10 10:52:33;;;;;;;7.93;1.83;;;;;;;23.49;51.03;102512.38;5030589;28;20099;-87
2022/07/10 10:55:03;;;;;;;3.70;1.60;;;;;;;24.11;48.26;102530.22;5031182;28;20033;-87
2022/07/10 10:57:32;;;;;;;4.27;1.87;;;;;;;24.40;47.71;102530.91;5030100;28;20350;-87
2022/07/10 11:00:26;;;;;;;4.28;1.67;;;;;;;24.60;47.39;102532.31;5031378;28;20124;-87
2022/07/10 11:03:36;;;;;;;5.10;1.73;;;;;;;24.53;46.78;102518.28;5031106;28;20486;-87
2022/07/10 11:06:06;;;;;;;5.45;1.70;;;;;;;24.39;45.96;102512.88;5030973;28;20623;-88
2022/07/10 11:08:47;;;;;;;3.13;1.50;;;;;;;24.37;46.71;102513.19;5054348;23;20088;-87
2022/07/10 11:11:40;;;;;;;4.22;1.67;;;;;;;24.16;46.65;102524.63;5031288;28;20033;-87
2022/07/10 11:14:15;;;;;;;2.95;1.55;;;;;;;24.53;45.76;102518.28;5030911;28;20029;-87
2022/07/10 11:17:02;;;;;;;4.55;1.58;;;;;;;24.57;46.07;102502.81;5013507;28;20018;-87
2022/07/10 11:19:53;;;;;;;3.75;1.70;;;;;;;24.88;45.32;102513.00;5029020;28;20044;-87
2022/07/10 11:23:00;;;;;;;3.20;1.40;;;;;;;25.39;44.47;102500.59;4968427;28;20117;-87
2022/07/10 11:26:20;;;;;;;4.07;1.50;;;;;;;25.57;45.17;102499.84;4969025;28;20286;-88
2022/07/10 11:29:10;;;;;;;3.83;1.40;;;;;;;25.82;44.98;102501.81;4969523;28;20034;-88
2022/07/10 11:31:52;;;;;;;3.78;1.60;;;;;;;25.45;44.16;102509.50;4970170;28;20042;-87
2022/07/10 11:34:20;;;;;;;6.25;1.95;;;;;;;24.96;43.74;102509.50;5017075;28;20038;-87
2022/07/10 11:39:39;;;;;;;4.13;1.58;;;;;;;25.58;43.59;102495.97;3329882;26;20062;-87
2022/07/10 11:42:07;;;;;;;3.63;1.77;;;;;;;25.24;43.95;102490.06;4990261;28;20041;-87
2022/07/10 11:45:01;;;;;;;2.85;1.77;;;;;;;25.02;44.51;102486.28;4990507;28;20162;-88
2022/07/10 11:47:26;;;;;;;3.40;1.80;;;;;;;24.70;44.65;102481.94;4972874;28;20018;-87
2022/07/10 11:49:51;;;;;;;4.03;1.50;;;;;;;24.50;44.84;102482.16;4990382;28;20026;-88
2022/07/10 11:52:17;;;;;;;5.47;1.63;;;;;;;24.64;45.21;102482.09;4991156;28;20034;-84
2022/07/10 11:57:48;;;;;;;3.65;1.58;;;;;;;24.46;45.75;102485.84;4998872;23;20062;-90
2022/07/10 12:00:41;;;;;;;4.55;1.75;;;;;;;24.91;46.19;102476.75;4973541;28;20118;-91
2022/07/10 12:03:26;;;;;;;5.18;1.35;;;;;;;25.08;44.99;102473.25;4973948;28;20105;-91
2022/07/10 12:05:51;;;;;;;3.08;1.65;;;;;;;25.18;45.08;102464.75;4991716;28;20037;-89
2022/07/10 12:08:17;;;;;;;3.50;1.43;;;;;;;25.02;44.86;102472.59;4990667;28;20023;-90
2022/07/10 12:10:43;;;;;;;4.32;1.55;;;;;;;24.96;44.23;102487.56;4991467;28;20022;-90
2022/07/10 12:13:23;;;;;;;2.23;1.47;;;;;;;24.37;45.68;102484.97;4990019;28;20062;-90
2022/07/10 12:15:52;;;;;;;4.13;1.15;;;;;;;23.92;46.25;102466.59;4992225;28;20030;-90
2022/07/10 12:18:31;;;;;;;2.90;1.30;;;;;;;23.63;47.81;102486.94;4993176;28;20026;-90
2022/07/10 12:21:15;;;;;;;3.35;1.40;;;;;;;23.24;48.31;102486.38;4974535;28;20031;-90
2022/07/10 12:23:43;;;;;;;3.55;1.50;;;;;;;23.07;49.54;102487.75;4992398;28;20030;-90
2022/07/10 12:29:25;;;;;;;2.83;1.40;;;;;;;24.27;47.50;102495.06;4997908;23;20400;-91
2022/07/10 12:32:23;;;;;;;3.80;1.40;;;;;;;24.32;46.78;102483.97;4973504;28;20068;-89
2022/07/10 12:34:58;;;;;;;4.45;1.50;;;;;;;24.56;46.82;102484.78;4973526;28;20039;-89
2022/07/10 12:37:24;;;;;;;2.35;1.30;;;;;;;25.00;46.41;102487.75;4973078;28;20033;-90
2022/07/10 12:39:59;;;;;;;3.27;1.30;;;;;;;24.96;45.82;102479.31;4972734;28;20046;-91
2022/07/10 12:42:31;;;;;;;3.03;1.57;;;;;;;24.83;45.14;102470.09;4971525;23;20310;-90
2022/07/10 12:45:13;;;;;;;4.80;1.20;;;;;;;25.04;45.46;102485.97;4971476;28;20023;-90
2022/07/10 12:48:06;;;;;;;3.35;1.40;;;;;;;25.40;45.10;102490.41;4976624;23;20077;-90
2022/07/10 12:50:44;;;;;;;3.75;1.30;;;;;;;25.42;44.00;102487.38;4971922;28;20023;-90
2022/07/10 12:53:15;;;;;;;2.15;1.25;;;;;;;25.39;44.46;102486.06;4975565;28;20101;-91
2022/07/10 12:55:54;;;;;;;3.28;1.17;;;;;;;25.38;44.93;102476.25;4974190;28;20035;-91
2022/07/10 12:58:19;;;;;;;2.67;1.65;;;;;;;25.59;44.23;102470.16;4977384;28;20029;-91
2022/07/10 13:03:39;;;;;;;1.63;1.05;;;;;;;26.20;43.13;102466.59;4977279;28;20038;-91
2022/07/10 13:06:04;;;;;;;3.50;1.30;;;;;;;26.33;42.51;102462.84;4994476;28;20040;-91
2022/07/10 13:08:46;;;;;;;4.57;1.65;;;;;;;26.07;42.53;102455.47;4977002;28;20068;-88
2022/07/10 13:11:18;;;;;;;6.70;1.40;;;;;;;25.21;42.79;102455.84;4994225;28;20478;-90
2022/07/10 13:13:43;;;;;;;2.83;1.20;;;;;;;25.55;43.48;102461.75;4992356;28;20041;-91
2022/07/10 13:16:24;;;;;;;2.40;1.53;;;;;;;26.26;42.96;102451.56;4994284;28;20653;-91
2022/07/10 13:18:55;;;;;;;2.42;1.48;;;;;;;26.84;41.01;102451.25;4976760;28;20057;-89
2022/07/10 13:21:21;;;;;;;5.60;1.20;;;;;;;26.99;41.39;102441.59;4993955;28;20022;-91